Time;durP1;ratioP1;P1;durP2;ratioP2;P2;SDS_P1;SDS_P2;PMS_P1;PMS_P2;Temp;Humidity;BMP_temperature;BMP_pressure;BME280_temperature;BME280_humidity;BME280_pressure;Samples;Min_cycle;Max_cycle;Signal;HPM_P1;HPM_P2
2021/12/19 00:01:15;;;;;;;24.90;10.40;;;;;;;5.28;100.00;103582.72;4896722;29;20020;-91
2021/12/19 00:09:08;;;;;;;24.80;12.10;;;;;;;5.30;100.00;103574.59;4896338;29;20083;-91
2021/12/19 00:11:33;;;;;;;23.60;10.85;;;;;;;5.38;100.00;103587.13;4896974;29;20032;-91
2021/12/19 00:14:00;;;;;;;25.13;11.98;;;;;;;5.36;100.00;103578.44;4896340;29;20039;-90
2021/12/19 00:16:26;;;;;;;28.00;13.27;;;;;;;5.33;100.00;103570.78;4896889;29;20668;-90
2021/12/19 00:18:52;;;;;;;33.25;15.40;;;;;;;5.38;100.00;103579.97;4895245;29;20403;-90
2021/12/19 00:21:19;;;;;;;36.50;18.83;;;;;;;5.39;100.00;103575.47;4895837;29;20028;-90
2021/12/19 00:23:46;;;;;;;34.67;18.05;;;;;;;5.34;100.00;103569.78;4896351;29;20403;-90
2021/12/19 00:26:13;;;;;;;35.60;18.13;;;;;;;5.41;100.00;103573.50;4896466;29;20033;-90
2021/12/19 00:28:39;;;;;;;37.47;18.73;;;;;;;5.40;100.00;103571.84;4895821;29;20112;-90
2021/12/19 00:31:05;;;;;;;36.85;18.85;;;;;;;5.40;100.00;103579.81;4895863;29;20017;-90
2021/12/19 00:33:31;;;;;;;40.17;20.08;;;;;;;5.29;100.00;103549.00;4896560;29;20029;-90
2021/12/19 00:35:58;;;;;;;40.45;20.02;;;;;;;5.40;100.00;103563.84;4895863;29;20100;-90
2021/12/19 00:38:23;;;;;;;42.63;20.90;;;;;;;5.34;100.00;103554.69;4895675;29;20032;-91
2021/12/19 00:40:49;;;;;;;42.78;20.45;;;;;;;5.30;100.00;103548.81;4896666;29;20589;-90
2021/12/19 00:43:33;;;;;;;44.53;20.02;;;;;;;5.27;100.00;103543.84;4895698;29;20036;-90
2021/12/19 00:46:06;;;;;;;40.10;18.92;;;;;;;5.22;100.00;103540.81;4896333;29;20040;-90
2021/12/19 00:48:31;;;;;;;43.05;19.25;;;;;;;5.33;100.00;103552.16;4895136;29;20084;-90
2021/12/19 00:50:57;;;;;;;39.17;18.55;;;;;;;5.38;100.00;103555.19;4896490;29;20461;-90
2021/12/19 00:53:22;;;;;;;42.63;19.05;;;;;;;5.25;100.00;103535.19;4895470;29;20735;-90
2021/12/19 00:55:48;;;;;;;45.30;19.02;;;;;;;5.30;100.00;103551.47;4896083;29;20111;-90
2021/12/19 00:58:13;;;;;;;41.58;18.38;;;;;;;5.23;100.00;103542.47;4895074;29;20056;-90
2021/12/19 01:00:38;;;;;;;47.35;19.58;;;;;;;5.35;100.00;103547.53;4895829;29;20648;-91
2021/12/19 01:03:05;;;;;;;45.72;20.33;;;;;;;5.24;100.00;103543.28;4895630;29;20132;-90
2021/12/19 01:05:34;;;;;;;50.22;21.20;;;;;;;5.34;100.00;103559.16;4861343;29;20088;-90
2021/12/19 01:08:00;;;;;;;49.28;20.95;;;;;;;5.18;100.00;103533.31;4876029;29;20029;-90
2021/12/19 01:10:25;;;;;;;48.72;21.30;;;;;;;5.31;100.00;103547.00;4886584;29;20100;-89
2021/12/19 01:12:50;;;;;;;45.45;20.52;;;;;;;5.26;100.00;103542.16;4895862;29;20421;-90
2021/12/19 01:15:17;;;;;;;47.03;19.55;;;;;;;5.28;100.00;103553.50;4895772;29;20036;-91
2021/12/19 01:17:43;;;;;;;45.05;19.52;;;;;;;5.28;100.00;103550.81;4895181;29;20085;-91
2021/12/19 01:20:19;;;;;;;40.60;16.77;;;;;;;5.27;100.00;103546.50;4894628;29;20045;-91
2021/12/19 01:22:45;;;;;;;40.38;16.02;;;;;;;5.27;100.00;103543.00;4895476;29;20036;-89
2021/12/19 01:25:11;;;;;;;38.08;15.77;;;;;;;5.17;100.00;103521.81;4895621;29;20397;-90
2021/12/19 01:27:36;;;;;;;42.80;17.33;;;;;;;5.17;100.00;103529.78;4895227;29;20076;-91
2021/12/19 01:30:04;;;;;;;43.13;17.38;;;;;;;5.15;100.00;103521.13;4893579;29;20033;-91
2021/12/19 01:32:29;;;;;;;43.20;17.58;;;;;;;5.22;100.00;103535.47;4894884;29;20040;-90
2021/12/19 01:34:54;;;;;;;43.22;18.08;;;;;;;5.22;100.00;103530.16;4896583;29;20035;-89
2021/12/19 01:37:20;;;;;;;49.35;19.30;;;;;;;5.14;100.00;103522.13;4894825;29;20084;-92
2021/12/19 01:39:45;;;;;;;49.42;19.98;;;;;;;5.21;100.00;103533.81;4893798;29;20032;-90
2021/12/19 01:42:13;;;;;;;50.30;19.77;;;;;;;5.19;100.00;103532.31;4895119;29;20028;-90
2021/12/19 01:44:38;;;;;;;48.20;20.02;;;;;;;5.10;100.00;103515.47;4895086;29;20033;-91
2021/12/19 01:47:05;;;;;;;50.97;19.77;;;;;;;5.08;100.00;103512.94;4894903;29;20032;-90
2021/12/19 01:49:30;;;;;;;49.13;18.58;;;;;;;5.16;100.00;103525.47;4894661;29;20084;-91
2021/12/19 01:51:55;;;;;;;43.30;18.08;;;;;;;5.15;100.00;103524.63;4886841;29;20392;-91
2021/12/19 01:54:21;;;;;;;48.15;18.95;;;;;;;5.04;100.00;103500.94;4876668;29;20029;-91
2021/12/19 01:56:46;;;;;;;48.75;19.77;;;;;;;5.16;100.00;103520.16;4876327;29;20437;-91
2021/12/19 01:59:12;;;;;;;47.72;19.20;;;;;;;5.14;100.00;103528.28;4880435;29;20035;-91
2021/12/19 02:01:49;;;;;;;50.38;19.52;;;;;;;5.15;100.00;103529.09;4894503;29;20108;-90
2021/12/19 02:04:16;;;;;;;50.10;19.48;;;;;;;5.12;100.00;103516.13;4894618;29;20111;-91
2021/12/19 02:06:41;;;;;;;50.20;19.33;;;;;;;5.06;100.00;103498.97;4895019;29;20044;-90
2021/12/19 02:09:08;;;;;;;49.38;18.80;;;;;;;5.12;100.00;103516.13;4894321;29;20029;-91
2021/12/19 02:11:38;;;;;;;47.90;19.23;;;;;;;5.12;100.00;103502.84;4894835;29;20031;-90
2021/12/19 02:14:04;;;;;;;48.85;18.70;;;;;;;5.10;100.00;103510.97;4894881;29;20033;-90
2021/12/19 02:16:30;;;;;;;48.70;19.75;;;;;;;4.98;100.00;103490.97;4894432;29;20476;-90
2021/12/19 02:18:57;;;;;;;51.08;19.48;;;;;;;5.03;100.00;103498.47;4894527;29;20021;-91
2021/12/19 02:21:22;;;;;;;50.60;21.42;;;;;;;5.10;100.00;103510.16;4894277;29;20552;-91
2021/12/19 02:23:48;;;;;;;51.70;20.48;;;;;;;5.01;100.00;103495.97;4897958;29;20029;-90
2021/12/19 02:26:14;;;;;;;57.35;22.70;;;;;;;4.99;100.00;103497.94;4898334;29;20021;-90
2021/12/19 02:28:40;;;;;;;57.80;22.33;;;;;;;5.08;100.00;103504.97;4898004;29;20028;-90
2021/12/19 02:31:05;;;;;;;57.75;22.60;;;;;;;5.08;100.00;103502.31;4897466;29;20499;-91
2021/12/19 02:33:34;;;;;;;56.42;20.13;;;;;;;5.06;100.00;103492.84;4898431;29;20485;-91
2021/12/19 02:49:40;;;;;;;77.93;26.13;;;;;;;4.94;100.00;103465.69;4865539;29;20503;-90
2021/12/19 02:52:17;;;;;;;75.60;25.95;;;;;;;4.96;100.00;103467.19;4898076;29;20025;-91
2021/12/19 02:54:43;;;;;;;79.32;26.13;;;;;;;4.99;100.00;103472.19;4897924;29;20040;-90
2021/12/19 02:57:10;;;;;;;73.38;26.25;;;;;;;4.88;100.00;103459.16;4898060;29;20033;-91
2021/12/19 02:59:36;;;;;;;74.25;24.90;;;;;;;4.93;100.00;103467.47;4890195;29;20029;-91
2021/12/19 03:02:01;;;;;;;67.75;24.55;;;;;;;4.80;100.00;103459.94;4893761;29;20103;-88
2021/12/19 03:04:27;;;;;;;58.70;22.80;;;;;;;4.86;100.00;103469.09;4897431;29;20141;-91
2021/12/19 03:06:52;;;;;;;60.58;24.02;;;;;;;4.83;100.00;103458.78;4897873;29;20048;-91
2021/12/19 03:09:55;;;;;;;64.53;24.33;;;;;;;4.86;100.00;103466.44;4897074;29;20392;-91
2021/12/19 03:20:17;;;;;;;59.95;24.23;;;;;;;4.88;100.00;103456.50;4897561;29;20119;-91
2021/12/19 03:22:42;;;;;;;61.65;23.48;;;;;;;4.81;100.00;103443.00;4897520;29;20028;-91
2021/12/19 03:25:08;;;;;;;67.55;24.73;;;;;;;4.83;100.00;103445.50;4896470;29;20045;-91
2021/12/19 03:27:33;;;;;;;70.15;24.48;;;;;;;4.75;100.00;103434.81;4897514;29;20039;-91
2021/12/19 03:29:59;;;;;;;68.22;25.05;;;;;;;4.64;100.00;103419.97;4896396;29;20029;-91
2021/12/19 03:32:26;;;;;;;69.03;25.45;;;;;;;4.73;100.00;103429.66;4880752;29;20060;-91
2021/12/19 03:34:51;;;;;;;72.60;25.45;;;;;;;4.79;100.00;103438.81;4896738;29;20381;-91
2021/12/19 03:37:16;;;;;;;70.43;25.13;;;;;;;4.67;100.00;103409.84;4897546;29;20039;-91
2021/12/19 03:39:56;;;;;;;78.32;27.15;;;;;;;4.79;100.00;103433.50;4896579;29;20028;-91
2021/12/19 03:42:23;;;;;;;79.80;27.10;;;;;;;4.68;100.00;103424.81;4897180;29;20046;-91
2021/12/19 03:44:48;;;;;;;78.70;27.00;;;;;;;4.81;100.00;103431.53;4897420;29;20063;-90
2021/12/19 03:47:14;;;;;;;81.97;27.13;;;;;;;4.74;100.00;103414.56;4897008;29;20081;-90
2021/12/19 03:49:39;;;;;;;82.80;26.55;;;;;;;4.72;100.00;103416.53;4896519;29;20044;-91
2021/12/19 03:52:05;;;;;;;70.22;24.00;;;;;;;4.67;100.00;103411.66;4897591;29;20029;-91
2021/12/19 03:54:30;;;;;;;70.25;22.73;;;;;;;4.73;100.00;103426.19;4897159;29;20039;-91
2021/12/19 03:56:55;;;;;;;86.57;25.13;;;;;;;4.70;100.00;103414.88;4897083;29;20032;-91
2021/12/19 03:59:20;;;;;;;84.03;25.33;;;;;;;4.59;100.00;103401.00;4896189;29;20035;-92
2021/12/19 04:01:50;;;;;;;76.70;24.55;;;;;;;4.61;100.00;103407.81;4897584;29;20029;-91
2021/12/19 04:04:15;;;;;;;80.47;25.52;;;;;;;4.63;100.00;103412.97;4895670;29;20028;-91
2021/12/19 04:06:41;;;;;;;71.50;23.80;;;;;;;4.59;100.00;103407.13;4896145;29;20088;-90
2021/12/19 04:09:06;;;;;;;85.35;25.35;;;;;;;4.60;100.00;103416.75;4895107;29;20025;-91
2021/12/19 04:11:31;;;;;;;81.30;25.52;;;;;;;4.55;100.00;103397.81;4895708;29;20115;-91
2021/12/19 04:13:57;;;;;;;72.35;24.88;;;;;;;4.64;100.00;103410.16;4895676;29;20056;-91
2021/12/19 04:16:22;;;;;;;91.47;25.80;;;;;;;4.51;100.00;103399.94;4896259;29;20028;-92
2021/12/19 04:18:47;;;;;;;77.78;23.60;;;;;;;4.53;100.00;103405.94;4894937;29;20039;-91
2021/12/19 04:21:13;;;;;;;56.90;18.98;;;;;;;4.48;100.00;103408.19;4895649;29;20551;-91
2021/12/19 04:23:40;;;;;;;50.35;16.83;;;;;;;4.30;100.00;103392.28;4893593;29;20032;-91
2021/12/19 04:26:06;;;;;;;48.65;16.83;;;;;;;4.35;100.00;103397.13;4895106;29;20404;-91
2021/12/19 04:28:31;;;;;;;45.85;15.77;;;;;;;4.29;100.00;103393.28;4894675;29;20029;-91
2021/12/19 04:30:59;;;;;;;46.63;13.90;;;;;;;4.14;100.00;103374.38;4895439;29;20025;-91
2021/12/19 04:33:25;;;;;;;47.80;14.38;;;;;;;4.19;100.00;103384.56;4895436;29;20104;-91
2021/12/19 04:35:51;;;;;;;39.72;14.18;;;;;;;4.06;100.00;103367.19;4895346;29;20476;-91
2021/12/19 04:41:49;;;;;;;40.45;13.13;;;;;;;4.12;100.00;103388.81;4895250;29;20401;-91
2021/12/19 04:50:48;;;;;;;40.17;11.45;;;;;;;4.00;100.00;103365.16;4894668;29;20041;-91
2021/12/19 04:55:22;;;;;;;36.67;11.75;;;;;;;4.09;100.00;103366.91;4895237;29;20040;-91
2021/12/19 04:58:14;;;;;;;36.90;11.23;;;;;;;4.07;100.00;103347.63;4894285;29;20036;-91
2021/12/19 05:01:00;;;;;;;32.35;11.20;;;;;;;4.16;100.00;103358.34;4878356;29;20039;-91
2021/12/19 05:14:09;;;;;;;38.60;11.90;;;;;;;4.08;100.00;103333.38;4895792;29;20059;-91
2021/12/19 05:16:38;;;;;;;38.88;12.60;;;;;;;4.23;100.00;103359.38;4895469;29;20029;-92
2021/12/19 05:19:27;;;;;;;41.15;13.23;;;;;;;4.18;100.00;103351.06;4894863;29;20040;-91
2021/12/19 05:21:56;;;;;;;37.22;13.02;;;;;;;4.23;100.00;103360.22;4894935;29;20041;-91
2021/12/19 05:24:45;;;;;;;37.20;11.68;;;;;;;4.20;100.00;103351.75;4891736;29;20029;-89
2021/12/19 05:27:08;;;;;;;40.13;13.02;;;;;;;4.21;100.00;103366.66;4894747;29;20044;-93
2021/12/19 05:29:36;;;;;;;38.47;12.32;;;;;;;4.25;100.00;103368.03;4895212;29;20124;-92
2021/12/19 05:32:02;;;;;;;39.88;12.75;;;;;;;4.13;100.00;103345.38;4882578;29;20511;-92
2021/12/19 05:34:29;;;;;;;43.72;13.18;;;;;;;4.23;100.00;103357.56;4895056;29;20070;-92
2021/12/19 05:45:17;;;;;;;53.38;14.60;;;;;;;4.24;100.00;103358.38;4894230;29;20511;-88
2021/12/19 05:47:46;;;;;;;53.47;15.05;;;;;;;4.09;100.00;103327.09;4895213;29;20020;-90
2021/12/19 05:50:12;;;;;;;48.92;15.23;;;;;;;4.19;100.00;103342.13;4892344;29;20035;-88
2021/12/19 05:52:38;;;;;;;52.17;15.80;;;;;;;4.19;100.00;103339.47;4893902;29;20040;-88
2021/12/19 05:55:04;;;;;;;47.95;15.05;;;;;;;4.18;100.00;103330.66;4876380;29;20395;-88
2021/12/19 05:57:33;;;;;;;38.60;11.77;;;;;;;4.14;100.00;103325.81;4877370;29;20036;-89
2021/12/19 05:59:58;;;;;;;39.25;13.55;;;;;;;4.16;100.00;103316.69;4894198;29;20025;-90
2021/12/19 06:02:24;;;;;;;37.20;11.48;;;;;;;4.21;100.00;103329.50;4878328;29;20541;-91
2021/12/19 06:04:50;;;;;;;38.58;11.35;;;;;;;4.10;100.00;103312.03;4894982;29;20036;-95
2021/12/19 06:07:20;;;;;;;33.92;11.38;;;;;;;4.21;100.00;103342.75;4894543;29;20024;-95
2021/12/19 06:10:20;;;;;;;33.88;10.38;;;;;;;4.17;100.00;103321.00;4889244;29;20032;-94
2021/12/19 06:12:48;;;;;;;34.22;10.63;;;;;;;4.16;100.00;103310.56;4872835;29;20194;-94
2021/12/19 06:15:13;;;;;;;33.88;11.60;;;;;;;4.07;100.00;103307.81;4895375;29;20420;-91
2021/12/19 06:17:41;;;;;;;34.10;11.32;;;;;;;4.20;100.00;103317.25;4895226;29;20029;-91
2021/12/19 06:20:09;;;;;;;36.20;11.18;;;;;;;4.16;100.00;103310.56;4893965;29;20100;-91
2021/12/19 06:22:34;;;;;;;35.15;11.82;;;;;;;4.18;100.00;103328.00;4894419;29;20116;-91
2021/12/19 06:24:59;;;;;;;34.55;11.48;;;;;;;4.18;100.00;103325.34;4893894;29;20127;-92
2021/12/19 06:27:25;;;;;;;32.35;12.32;;;;;;;4.19;100.00;103328.84;4894697;29;20051;-87
2021/12/19 06:29:50;;;;;;;35.47;12.45;;;;;;;4.19;100.00;103313.72;4894031;29;20123;-89
2021/12/19 06:32:17;;;;;;;37.05;13.25;;;;;;;4.24;100.00;103327.38;4894621;29;20036;-89
2021/12/19 06:34:42;;;;;;;38.10;12.93;;;;;;;4.22;100.00;103309.94;4894831;29;20052;-89
2021/12/19 06:37:10;;;;;;;36.17;13.88;;;;;;;4.23;100.00;103296.53;4892512;29;20072;-89
2021/12/19 06:39:37;;;;;;;40.80;15.30;;;;;;;4.23;100.00;103296.53;4894156;29;20116;-89
2021/12/19 06:42:04;;;;;;;37.97;14.82;;;;;;;4.35;100.00;103310.38;4894795;29;20028;-89
2021/12/19 06:44:30;;;;;;;36.30;14.05;;;;;;;4.28;100.00;103300.53;4894105;29;20115;-89
2021/12/19 06:46:55;;;;;;;39.80;14.57;;;;;;;4.17;100.00;103278.56;4891120;29;20120;-89
2021/12/19 06:49:21;;;;;;;37.05;13.00;;;;;;;4.22;100.00;103281.59;4912279;29;20123;-89
2021/12/19 06:51:46;;;;;;;41.55;14.55;;;;;;;4.28;100.00;103284.63;4898570;29;20136;-89
2021/12/19 06:54:11;;;;;;;38.60;13.93;;;;;;;4.22;100.00;103268.31;4894007;29;20031;-89
2021/12/19 06:56:36;;;;;;;44.55;17.02;;;;;;;4.34;100.00;103287.47;4894441;29;20069;-90
2021/12/19 06:59:02;;;;;;;41.88;16.35;;;;;;;4.33;100.00;103279.66;4893852;29;20032;-90
2021/12/19 07:01:28;;;;;;;40.10;16.45;;;;;;;4.33;100.00;103277.84;4894748;29;20572;-90
2021/12/19 07:03:53;;;;;;;42.58;17.45;;;;;;;4.27;100.00;103270.50;4892833;29;20131;-90
2021/12/19 07:06:18;;;;;;;43.90;17.65;;;;;;;4.31;100.00;103269.19;4888552;29;20029;-90
2021/12/19 07:08:44;;;;;;;48.95;22.33;;;;;;;4.33;100.00;103272.53;4894039;29;20047;-90
2021/12/19 07:11:09;;;;;;;49.30;22.88;;;;;;;4.29;100.00;103257.91;4897698;29;20033;-89
2021/12/19 07:13:34;;;;;;;51.53;22.45;;;;;;;4.32;100.00;103260.25;4897127;29;20396;-90
2021/12/19 07:16:00;;;;;;;48.40;22.30;;;;;;;4.28;100.00;103255.41;4898505;29;20480;-89
2021/12/19 07:18:25;;;;;;;47.97;21.67;;;;;;;4.35;100.00;103261.75;4880150;29;20037;-89
2021/12/19 07:20:51;;;;;;;49.20;21.63;;;;;;;4.35;100.00;103259.09;4897265;29;20039;-89
2021/12/19 07:23:19;;;;;;;46.22;19.27;;;;;;;4.33;100.00;103258.41;4901703;29;20774;-90
2021/12/19 07:25:45;;;;;;;54.00;21.77;;;;;;;4.44;100.00;103281.22;4891285;29;20047;-90
2021/12/19 07:28:17;;;;;;;54.83;20.50;;;;;;;4.40;100.00;103278.88;4896457;29;20033;-89
2021/12/19 07:30:42;;;;;;;51.90;20.52;;;;;;;4.31;100.00;103253.28;4897911;29;20060;-87
2021/12/19 07:33:09;;;;;;;53.83;19.63;;;;;;;4.48;100.00;103274.63;4897008;29;20531;-87
2021/12/19 07:35:37;;;;;;;54.60;19.60;;;;;;;4.48;100.00;103277.28;4896759;29;20029;-88
2021/12/19 07:38:04;;;;;;;53.47;19.77;;;;;;;4.47;100.00;103273.78;4895969;29;20099;-88
2021/12/19 07:40:36;;;;;;;53.22;19.35;;;;;;;4.50;100.00;103262.00;4896548;29;20520;-87
2021/12/19 07:43:03;;;;;;;;;;;;;;;4.54;100.00;103260.72;4895657;29;20119;-89
2021/12/19 07:45:29;;;;;;;57.67;19.33;;;;;;;4.45;100.00;103254.53;4899494;29;19920;-89
2021/12/19 07:47:58;;;;;;;52.13;17.85;;;;;;;4.53;100.00;103259.88;4878079;29;20027;-88
2021/12/19 07:50:23;;;;;;;53.00;19.33;;;;;;;4.47;100.00;103249.91;4877450;29;20250;-88
2021/12/19 07:52:48;;;;;;;51.20;19.80;;;;;;;4.51;100.00;103250.41;4884457;29;20111;-88
2021/12/19 07:55:14;;;;;;;54.65;20.02;;;;;;;4.49;100.00;103239.09;4897137;29;20395;-89
2021/12/19 07:57:40;;;;;;;57.78;20.52;;;;;;;4.49;100.00;103241.75;4896336;29;20611;-92
2021/12/19 08:00:08;;;;;;;55.97;20.77;;;;;;;4.61;100.00;103253.78;4879564;29;20036;-84
2021/12/19 08:02:34;;;;;;;55.05;20.63;;;;;;;4.62;100.00;103251.97;4896713;29;20037;-84
2021/12/19 08:04:59;;;;;;;53.97;21.08;;;;;;;4.54;100.00;103245.59;4879951;29;20048;-85
2021/12/19 08:07:24;;;;;;;58.45;21.05;;;;;;;4.66;100.00;103254.13;4898652;29;20039;-84
2021/12/19 08:10:01;;;;;;;56.80;20.17;;;;;;;4.68;100.00;103254.81;4899817;29;20048;-83
2021/12/19 08:12:27;;;;;;;56.47;21.27;;;;;;;4.70;100.00;103244.88;4896221;29;20125;-83
2021/12/19 08:14:52;;;;;;;56.67;21.88;;;;;;;4.70;100.00;103246.69;4886827;29;20107;-83
2021/12/19 08:17:18;;;;;;;57.03;21.42;;;;;;;4.69;100.00;103245.84;4901466;29;20119;-82
2021/12/19 08:19:45;;;;;;;52.47;20.35;;;;;;;4.70;100.00;103244.03;4896402;29;20025;-84
2021/12/19 08:22:13;;;;;;;49.83;20.42;;;;;;;4.75;100.00;103230.28;4893931;29;20496;-83
2021/12/19 08:24:38;;;;;;;49.47;19.85;;;;;;;4.77;100.00;103234.44;4896907;29;20035;-83
2021/12/19 08:27:04;;;;;;;49.85;20.10;;;;;;;4.74;100.00;103224.13;4896124;29;20032;-83
2021/12/19 08:29:29;;;;;;;48.85;19.42;;;;;;;4.72;100.00;103226.09;4895369;29;20504;-83
2021/12/19 08:31:54;;;;;;;51.63;20.70;;;;;;;4.77;100.00;103228.28;4895818;29;20044;-83
2021/12/19 08:34:20;;;;;;;48.92;21.02;;;;;;;4.80;100.00;103233.28;4896457;29;20041;-83
2021/12/19 08:36:45;;;;;;;49.30;19.95;;;;;;;4.85;100.00;103241.59;4895991;29;20037;-84
2021/12/19 08:39:12;;;;;;;46.85;19.45;;;;;;;4.84;100.00;103227.47;4895795;29;20042;-83
2021/12/19 08:41:38;;;;;;;44.53;18.27;;;;;;;4.90;100.00;103234.00;4895270;29;20441;-84
2021/12/19 08:44:04;;;;;;;40.70;16.73;;;;;;;4.84;100.00;103221.34;4896256;29;20033;-83
2021/12/19 08:46:32;;;;;;;39.10;16.30;;;;;;;4.95;100.00;103234.31;4894613;29;20139;-84
2021/12/19 08:48:58;;;;;;;41.53;16.73;;;;;;;5.02;100.00;103241.66;4894621;29;20112;-83
2021/12/19 08:51:26;;;;;;;38.50;16.15;;;;;;;4.99;100.00;103226.88;4895204;29;20112;-83
2021/12/19 08:53:51;;;;;;;39.13;15.88;;;;;;;5.09;100.00;103232.06;4895496;29;20032;-83
2021/12/19 08:56:16;;;;;;;38.53;16.80;;;;;;;5.03;100.00;103216.75;4893962;29;20148;-83
2021/12/19 08:58:42;;;;;;;35.33;14.25;;;;;;;5.03;100.00;103216.75;4883289;29;20029;-84
2021/12/19 09:01:07;;;;;;;32.55;13.80;;;;;;;5.09;100.00;103219.59;4895408;29;20035;-84
2021/12/19 09:03:33;;;;;;;34.42;13.73;;;;;;;5.09;100.00;103211.63;4895446;29;20055;-84
2021/12/19 09:05:59;;;;;;;32.72;12.77;;;;;;;5.19;100.00;103229.25;4895562;29;20040;-83
2021/12/19 09:08:24;;;;;;;31.70;12.70;;;;;;;5.19;100.00;103221.28;4895338;29;20052;-83
2021/12/19 09:10:50;;;;;;;31.58;12.30;;;;;;;5.13;100.00;103207.66;4895109;29;20060;-84
2021/12/19 09:13:16;;;;;;;29.13;12.18;;;;;;;5.21;100.00;103220.13;4895407;29;20029;-84
2021/12/19 09:15:41;;;;;;;28.77;11.98;;;;;;;5.18;100.00;103216.97;4895176;29;20456;-84
2021/12/19 09:18:06;;;;;;;29.10;11.48;;;;;;;5.19;100.00;103213.31;4895002;29;20056;-83
2021/12/19 09:20:32;;;;;;;28.70;12.55;;;;;;;5.21;100.00;103214.81;4895828;29;20523;-84
2021/12/19 09:22:57;;;;;;;29.00;12.05;;;;;;;5.25;100.00;103208.19;4895804;29;20552;-83
2021/12/19 09:25:23;;;;;;;28.48;11.98;;;;;;;5.28;100.00;103215.81;4895553;29;20054;-83
2021/12/19 09:27:48;;;;;;;32.38;13.40;;;;;;;5.23;100.00;103204.00;4895295;29;20112;-83
2021/12/19 09:30:14;;;;;;;29.33;12.73;;;;;;;5.31;100.00;103220.78;4878034;29;20036;-83
2021/12/19 09:32:40;;;;;;;30.02;11.43;;;;;;;5.31;100.00;103210.16;4895458;29;20017;-83
2021/12/19 09:35:06;;;;;;;27.45;11.43;;;;;;;5.24;100.00;103195.88;4894716;29;20076;-83
2021/12/19 09:37:35;;;;;;;27.33;10.95;;;;;;;5.40;100.00;103220.81;4895578;29;20032;-83
2021/12/19 09:40:03;;;;;;;26.88;11.20;;;;;;;5.35;100.00;103201.84;4888684;29;20028;-83
2021/12/19 09:42:33;;;;;;;28.02;11.50;;;;;;;5.39;100.00;103211.19;4875617;29;20029;-83
2021/12/19 09:45:00;;;;;;;29.73;11.52;;;;;;;5.41;100.00;103209.19;4889482;29;20027;-83
2021/12/19 09:47:26;;;;;;;27.30;11.05;;;;;;;5.33;100.00;103202.03;4904714;29;20531;-83
2021/12/19 09:49:51;;;;;;;25.30;10.85;;;;;;;5.40;100.00;103211.00;4888133;29;20029;-84
2021/12/19 09:52:16;;;;;;;28.65;11.43;;;;;;;5.45;100.00;103214.00;4895061;29;20029;-83
2021/12/19 09:54:42;;;;;;;30.98;11.98;;;;;;;5.43;100.00;103209.84;4894217;29;20552;-84
2021/12/19 09:57:07;;;;;;;32.58;13.02;;;;;;;5.41;100.00;103203.88;4894357;29;20043;-84
2021/12/19 09:59:33;;;;;;;29.67;12.35;;;;;;;5.44;100.00;103208.88;4877480;29;20033;-85
2021/12/19 10:01:58;;;;;;;30.55;13.15;;;;;;;5.54;100.00;103217.50;4894921;29;20085;-84
2021/12/19 10:04:34;;;;;;;32.70;13.68;;;;;;;5.54;100.00;103225.50;4892368;29;20032;-83
2021/12/19 10:07:17;;;;;;;29.77;13.57;;;;;;;5.55;100.00;103211.19;4893323;29;20062;-83
2021/12/19 10:10:03;;;;;;;33.20;14.70;;;;;;;5.58;100.00;103208.22;4894008;29;20033;-83
2021/12/19 10:14:57;;;;;;;32.42;14.57;;;;;;;5.53;100.00;103196.41;4895026;29;20033;-83
2021/12/19 10:17:22;;;;;;;32.10;14.30;;;;;;;5.51;100.00;103183.25;4894858;29;20024;-83
2021/12/19 10:19:50;;;;;;;28.80;13.20;;;;;;;5.59;100.00;103190.41;4894409;29;20064;-83
2021/12/19 10:22:23;;;;;;;29.52;12.75;;;;;;;5.73;100.00;103199.56;4894595;29;20468;-83
2021/12/19 10:24:49;;;;;;;30.98;13.40;;;;;;;5.67;100.00;103187.75;4894633;29;20033;-83
2021/12/19 10:27:40;;;;;;;33.00;12.82;;;;;;;5.79;100.00;103192.72;4894382;29;20469;-84
2021/12/19 10:30:10;;;;;;;;;;;;;;;5.81;100.00;103194.25;4877928;29;20032;-83
2021/12/19 10:32:36;;;;;;;29.40;12.45;;;;;;;5.78;100.00;103186.59;4894447;29;19916;-84
2021/12/19 10:35:16;;;;;;;29.45;13.02;;;;;;;5.80;100.00;103186.41;4894925;29;20092;-83
2021/12/19 10:37:41;;;;;;;32.00;14.60;;;;;;;5.68;100.00;103161.97;4894510;29;20116;-83
2021/12/19 10:40:08;;;;;;;29.95;13.48;;;;;;;5.66;100.00;103161.34;4893911;29;20116;-83
2021/12/19 10:42:48;;;;;;;29.70;14.10;;;;;;;5.76;100.00;103170.78;4894515;29;20123;-83
2021/12/19 10:45:29;;;;;;;33.65;14.50;;;;;;;5.79;100.00;103172.28;4897832;29;20096;-84
2021/12/19 10:48:14;;;;;;;30.37;13.37;;;;;;;5.86;100.00;103169.78;4897784;29;20469;-83
2021/12/19 10:50:52;;;;;;;31.15;14.07;;;;;;;5.81;100.00;103151.66;4898452;29;20284;-83
2021/12/19 10:53:19;;;;;;;31.58;13.98;;;;;;;5.79;100.00;103161.66;4897944;29;20036;-83
2021/12/19 10:55:49;;;;;;;32.10;14.27;;;;;;;5.85;100.00;103160.97;4898278;29;20031;-83
2021/12/19 10:58:19;;;;;;;29.55;12.70;;;;;;;5.84;100.00;103156.63;4895790;29;20044;-83
2021/12/19 11:01:03;;;;;;;30.15;12.70;;;;;;;5.79;100.00;103140.38;4887034;29;20040;-83
2021/12/19 11:04:04;;;;;;;28.90;12.32;;;;;;;5.78;100.00;103136.03;4898028;29;20119;-83
2021/12/19 11:06:47;;;;;;;24.10;10.63;;;;;;;5.82;100.00;103147.16;4876548;29;20448;-83
2021/12/19 11:09:18;;;;;;;25.02;10.75;;;;;;;5.80;100.00;103150.00;4897624;29;20035;-83
2021/12/19 11:11:54;;;;;;;23.58;10.50;;;;;;;5.69;100.00;103126.41;4897726;29;20028;-83
2021/12/19 11:14:23;;;;;;;23.75;10.27;;;;;;;5.74;100.00;103134.72;4897518;29;20033;-82
2021/12/19 11:16:54;;;;;;;23.65;9.73;;;;;;;5.58;100.00;103108.94;4897308;29;20036;-84
2021/12/19 11:19:21;;;;;;;23.25;10.63;;;;;;;5.75;100.00;103120.41;4897216;29;20489;-85
2021/12/19 11:21:47;;;;;;;22.02;9.70;;;;;;;5.75;100.00;103120.41;4897625;29;20028;-84
2021/12/19 11:24:16;;;;;;;23.95;9.88;;;;;;;5.80;100.00;103114.56;4897791;29;20032;-83
2021/12/19 11:26:45;;;;;;;23.63;10.55;;;;;;;5.78;100.00;103096.13;4896816;29;20532;-83
2021/12/19 11:29:11;;;;;;;22.35;9.43;;;;;;;5.78;100.00;103090.81;4895304;29;20040;-82
2021/12/19 11:31:39;;;;;;;23.17;9.98;;;;;;;5.92;100.00;103094.59;4889422;29;20025;-82
2021/12/19 11:34:36;;;;;;;23.38;9.45;;;;;;;5.94;100.00;103099.75;4882423;29;20459;-82
2021/12/19 11:37:07;;;;;;;24.73;9.75;;;;;;;5.95;100.00;103090.75;4895740;29;20129;-82
2021/12/19 11:39:36;;;;;;;22.23;10.13;;;;;;;5.95;100.00;103088.09;4896224;29;20041;-82
2021/12/19 11:42:14;;;;;;;22.80;9.82;;;;;;;5.89;100.00;103069.16;4879829;29;20096;-82
2021/12/19 11:45:04;;;;;;;24.50;10.88;;;;;;;5.89;100.00;103082.44;4896428;29;20020;-82
2021/12/19 11:47:40;;;;;;;22.60;9.35;;;;;;;5.94;100.00;103084.59;4897248;29;20029;-82
2021/12/19 11:50:16;;;;;;;21.63;8.55;;;;;;;5.84;100.00;103066.16;4895780;29;20510;-82
2021/12/19 11:52:42;;;;;;;21.83;8.73;;;;;;;5.84;100.00;103071.47;4896740;29;20036;-82
2021/12/19 11:55:13;;;;;;;24.00;9.73;;;;;;;5.96;100.00;103084.44;4877821;29;20036;-82
2021/12/19 11:57:39;;;;;;;17.33;7.22;;;;;;;5.86;100.00;103082.78;4890034;29;20032;-82
2021/12/19 12:00:27;;;;;;;14.80;6.72;;;;;;;5.79;100.00;103076.50;4894745;29;20103;-82
2021/12/19 12:03:14;;;;;;;17.70;8.93;;;;;;;5.77;100.00;103073.19;4896930;29;20028;-81
2021/12/19 12:05:50;;;;;;;14.55;7.45;;;;;;;5.71;100.00;103065.88;4908500;29;20127;-82
2021/12/19 12:08:21;;;;;;;16.65;6.45;;;;;;;5.71;100.00;103071.19;4896692;29;20056;-83
2021/12/19 12:10:55;;;;;;;17.20;8.70;;;;;;;5.74;100.00;103068.19;4896154;29;20380;-83
2021/12/19 12:13:24;;;;;;;14.93;7.10;;;;;;;5.77;100.00;103062.53;4885221;29;20108;-83
2021/12/19 12:15:54;;;;;;;14.15;7.95;;;;;;;5.81;100.00;103063.03;4895561;29;20040;-83